Time;durP1;ratioP1;P1;durP2;ratioP2;P2;SDS_P1;SDS_P2;PMS_P1;PMS_P2;Temp;Humidity;BMP_temperature;BMP_pressure;BME280_temperature;BME280_humidity;BME280_pressure;Samples;Min_cycle;Max_cycle;Signal;HPM_P1;HPM_P2
2023/04/17 00:01:51;;;;;;;16.77;14.40;;;;;;;;;;5011389;28;20186;-74
2023/04/17 00:04:20;;;;;;;16.50;12.73;;;;;;;;;;5010894;28;20255;-74
2023/04/17 00:06:48;;;;;;;15.90;13.67;;;;;;;;;;5010050;28;20401;-74
2023/04/17 00:09:14;;;;;;;18.07;14.40;;;;;;;;;;5010831;28;20283;-74
2023/04/17 00:11:40;;;;;;;18.27;13.73;;;;;;;;;;5011067;28;20198;-75
2023/04/17 00:14:06;;;;;;;16.40;13.37;;;;;;;;;;5010785;28;20198;-75
2023/04/17 00:16:32;;;;;;;16.77;13.07;;;;;;;;;;5010937;28;20256;-74
2023/04/17 00:18:58;;;;;;;17.20;13.23;;;;;;;;;;5026662;28;20191;-74
2023/04/17 00:21:25;;;;;;;18.57;14.00;;;;;;;;;;5042761;28;20277;-74
2023/04/17 00:23:51;;;;;;;15.13;12.70;;;;;;;;;;5010723;28;20544;-74
2023/04/17 00:26:18;;;;;;;17.73;13.73;;;;;;;;;;5011085;28;20210;-74
2023/04/17 00:28:46;;;;;;;16.67;13.13;;;;;;;;;;5042754;28;20750;-74
2023/04/17 00:31:12;;;;;;;16.53;13.20;;;;;;;;;;5026042;28;20176;-75
2023/04/17 00:33:38;;;;;;;15.47;13.30;;;;;;;;;;5042268;28;20183;-75
2023/04/17 00:36:05;;;;;;;15.87;12.87;;;;;;;;;;5010772;28;20497;-75
2023/04/17 00:38:31;;;;;;;14.93;12.73;;;;;;;;;;5010874;28;20210;-74
2023/04/17 00:40:57;;;;;;;15.63;12.67;;;;;;;;;;5009717;28;20182;-74
2023/04/17 00:43:23;;;;;;;15.53;12.30;;;;;;;;;;5009358;28;20185;-74
2023/04/17 00:45:50;;;;;;;17.17;13.33;;;;;;;;;;5010891;28;20255;-74
2023/04/17 00:48:17;;;;;;;15.60;13.07;;;;;;;;;;5009645;28;20207;-74
2023/04/17 00:50:44;;;;;;;15.43;12.67;;;;;;;;;;5009148;28;20187;-74
2023/04/17 00:53:10;;;;;;;16.10;12.80;;;;;;;;;;5009068;28;20187;-74
2023/04/17 00:55:37;;;;;;;18.90;13.73;;;;;;;;;;5009723;28;20655;-76
2023/04/17 00:58:04;;;;;;;15.67;12.63;;;;;;;;;;5010756;28;20211;-74
2023/04/17 01:00:30;;;;;;;17.00;13.60;;;;;;;;;;5009669;28;20205;-74
2023/04/17 01:02:57;;;;;;;15.93;13.23;;;;;;;;;;5009439;28;20225;-74
2023/04/17 01:05:26;;;;;;;17.10;14.13;;;;;;;;;;5010342;28;20183;-74
2023/04/17 01:07:53;;;;;;;17.03;13.83;;;;;;;;;;5009357;28;20222;-74
2023/04/17 01:10:19;;;;;;;15.33;12.47;;;;;;;;;;5009489;28;20175;-74
2023/04/17 01:12:47;;;;;;;14.87;12.10;;;;;;;;;;5009201;28;20306;-74
2023/04/17 01:15:15;;;;;;;14.50;11.70;;;;;;;;;;5009279;28;20203;-74
2023/04/17 01:17:41;;;;;;;17.80;13.17;;;;;;;;;;5009081;28;20215;-74
2023/04/17 01:20:09;;;;;;;20.40;13.47;;;;;;;;;;5010421;28;20179;-74
2023/04/17 01:22:36;;;;;;;16.23;13.20;;;;;;;;;;5012598;28;20233;-75
2023/04/17 01:25:03;;;;;;;18.70;15.63;;;;;;;;;;5030838;28;20200;-74
2023/04/17 01:27:34;;;;;;;17.93;14.10;;;;;;;;;;5011144;28;20249;-74
2023/04/17 01:30:00;;;;;;;18.83;15.07;;;;;;;;;;5029554;28;20282;-74
2023/04/17 01:32:27;;;;;;;16.83;14.50;;;;;;;;;;5059198;28;20186;-74
2023/04/17 01:34:54;;;;;;;15.80;13.00;;;;;;;;;;5031062;28;20178;-74
2023/04/17 01:37:20;;;;;;;14.63;12.40;;;;;;;;;;5013775;28;20260;-74
2023/04/17 01:39:46;;;;;;;17.63;13.07;;;;;;;;;;5013588;28;20543;-74
2023/04/17 01:42:12;;;;;;;15.70;12.70;;;;;;;;;;5013675;28;20228;-74
2023/04/17 01:44:38;;;;;;;14.90;12.47;;;;;;;;;;5045696;28;20712;-74
2023/04/17 01:47:04;;;;;;;17.83;13.13;;;;;;;;;;5013621;28;20715;-74
2023/04/17 01:49:30;;;;;;;15.83;12.50;;;;;;;;;;5012342;28;20713;-75
2023/04/17 01:51:57;;;;;;;17.00;13.93;;;;;;;;;;5012165;28;20184;-75
2023/04/17 01:54:23;;;;;;;16.90;14.23;;;;;;;;;;5013289;28;21018;-75
2023/04/17 01:56:50;;;;;;;16.20;13.53;;;;;;;;;;5003327;28;20298;-74
2023/04/17 01:59:16;;;;;;;15.90;12.80;;;;;;;;;;5045105;28;20258;-74
2023/04/17 02:01:42;;;;;;;17.63;13.10;;;;;;;;;;5045244;28;20191;-74
2023/04/17 02:04:08;;;;;;;17.27;12.60;;;;;;;;;;4995572;28;20182;-74
2023/04/17 02:06:35;;;;;;;16.50;12.87;;;;;;;;;;5013303;28;20195;-74
2023/04/17 02:09:02;;;;;;;15.03;12.37;;;;;;;;;;5045002;28;20241;-75
2023/04/17 02:11:28;;;;;;;15.37;12.43;;;;;;;;;;5045220;28;20179;-74
2023/04/17 02:13:55;;;;;;;15.67;12.30;;;;;;;;;;5012924;28;20183;-74
2023/04/17 02:16:21;;;;;;;15.07;12.90;;;;;;;;;;5045091;28;20210;-74
2023/04/17 02:18:49;;;;;;;15.57;12.90;;;;;;;;;;5044691;28;20214;-75
2023/04/17 02:21:15;;;;;;;16.57;13.37;;;;;;;;;;5045058;28;20175;-74
2023/04/17 02:23:41;;;;;;;17.13;13.63;;;;;;;;;;5012913;28;20670;-74
2023/04/17 02:26:07;;;;;;;16.50;13.60;;;;;;;;;;5013354;28;20175;-74
2023/04/17 02:28:33;;;;;;;15.67;12.07;;;;;;;;;;4993157;28;20212;-74
2023/04/17 02:31:04;;;;;;;14.57;12.40;;;;;;;;;;4992160;28;20850;-74
2023/04/17 02:33:30;;;;;;;17.10;14.80;;;;;;;;;;4992622;28;20175;-74
2023/04/17 02:35:57;;;;;;;14.13;12.40;;;;;;;;;;4991939;28;20644;-74
2023/04/17 02:38:31;;;;;;;15.77;11.93;;;;;;;;;;5009127;28;20199;-74
2023/04/17 02:41:00;;;;;;;15.97;12.27;;;;;;;;;;4993275;28;20644;-74
2023/04/17 02:43:29;;;;;;;19.53;14.07;;;;;;;;;;4991541;28;20557;-74
2023/04/17 02:45:55;;;;;;;15.30;12.10;;;;;;;;;;4997118;28;20211;-74
2023/04/17 02:48:25;;;;;;;18.47;12.97;;;;;;;;;;5011108;28;20242;-74
2023/04/17 02:50:52;;;;;;;13.97;11.93;;;;;;;;;;5011243;28;20197;-74
2023/04/17 02:53:20;;;;;;;15.47;12.00;;;;;;;;;;5012308;28;20519;-74
2023/04/17 02:55:47;;;;;;;18.63;13.97;;;;;;;;;;5011220;28;20186;-76
2023/04/17 02:58:14;;;;;;;15.93;13.10;;;;;;;;;;5011059;28;20211;-74
2023/04/17 03:00:40;;;;;;;16.70;13.77;;;;;;;;;;5011086;28;20584;-74
2023/04/17 03:03:10;;;;;;;15.27;12.13;;;;;;;;;;5010686;28;20191;-74
2023/04/17 03:05:36;;;;;;;15.80;12.53;;;;;;;;;;5044069;28;20272;-74
2023/04/17 03:08:03;;;;;;;16.17;12.33;;;;;;;;;;5027433;28;20222;-74
2023/04/17 03:10:34;;;;;;;14.57;11.73;;;;;;;;;;5044027;28;20237;-75
2023/04/17 03:13:02;;;;;;;12.33;10.27;;;;;;;;;;5010670;28;20274;-74
2023/04/17 03:15:28;;;;;;;15.77;12.07;;;;;;;;;;5010906;28;20183;-74
2023/04/17 03:17:54;;;;;;;15.40;12.80;;;;;;;;;;5010538;28;20585;-74
2023/04/17 03:20:20;;;;;;;13.83;11.40;;;;;;;;;;5010877;28;20554;-74
2023/04/17 03:22:46;;;;;;;13.27;11.53;;;;;;;;;;5010301;28;20190;-74
2023/04/17 03:25:14;;;;;;;15.20;11.83;;;;;;;;;;5043736;28;20257;-75
2023/04/17 03:27:47;;;;;;;13.77;11.10;;;;;;;;;;5027915;28;20206;-75
2023/04/17 03:30:14;;;;;;;14.07;11.10;;;;;;;;;;5010477;28;20190;-74
2023/04/17 03:32:44;;;;;;;17.00;14.07;;;;;;;;;;4994103;28;20187;-74
2023/04/17 03:35:11;;;;;;;15.90;13.10;;;;;;;;;;5010655;28;20234;-74
2023/04/17 03:37:37;;;;;;;16.17;13.13;;;;;;;;;;5010546;28;20211;-74
2023/04/17 03:40:05;;;;;;;17.87;12.43;;;;;;;;;;4993654;28;20183;-74
2023/04/17 03:42:31;;;;;;;15.83;11.40;;;;;;;;;;5010747;28;20179;-74
2023/04/17 03:44:57;;;;;;;13.83;11.37;;;;;;;;;;5010679;28;20179;-74
2023/04/17 03:47:24;;;;;;;12.93;10.80;;;;;;;;;;5010456;28;20199;-75
2023/04/17 03:49:50;;;;;;;13.90;11.57;;;;;;;;;;5011664;28;20557;-75
2023/04/17 03:52:17;;;;;;;13.07;10.67;;;;;;;;;;5009979;28;20187;-74
2023/04/17 03:54:47;;;;;;;15.27;10.70;;;;;;;;;;5010405;28;20189;-74
2023/04/17 03:57:13;;;;;;;16.60;11.77;;;;;;;;;;4993679;28;20281;-74
2023/04/17 03:59:39;;;;;;;18.10;12.77;;;;;;;;;;5011641;28;20305;-74
2023/04/17 04:02:06;;;;;;;15.73;11.47;;;;;;;;;;5009993;28;20614;-75
2023/04/17 04:04:34;;;;;;;17.20;12.90;;;;;;;;;;5010035;28;20183;-74
2023/04/17 04:07:07;;;;;;;14.57;10.70;;;;;;;;;;5009288;28;20679;-75
2023/04/17 04:09:34;;;;;;;18.30;12.90;;;;;;;;;;5026411;28;20198;-74
2023/04/17 04:12:02;;;;;;;16.27;12.70;;;;;;;;;;5009136;28;20191;-74
2023/04/17 04:14:33;;;;;;;17.03;13.50;;;;;;;;;;5010187;28;20254;-74
2023/04/17 04:16:59;;;;;;;14.87;11.40;;;;;;;;;;5011332;28;20587;-74
2023/04/17 04:19:25;;;;;;;16.57;13.60;;;;;;;;;;5011400;28;20179;-74
2023/04/17 04:21:52;;;;;;;15.87;13.17;;;;;;;;;;5010099;28;20179;-74
2023/04/17 04:24:20;;;;;;;18.67;13.40;;;;;;;;;;4993536;28;20292;-76
2023/04/17 04:26:48;;;;;;;16.60;13.00;;;;;;;;;;5011244;28;20695;-75
2023/04/17 04:29:15;;;;;;;15.67;12.43;;;;;;;;;;5009908;28;20191;-74
2023/04/17 04:32:14;;;;;;;16.67;13.07;;;;;;;;;;5009481;28;20183;-74
2023/04/17 04:34:44;;;;;;;17.30;12.70;;;;;;;;;;5009957;28;20279;-75
2023/04/17 04:37:14;;;;;;;16.37;12.87;;;;;;;;;;4988885;28;20228;-74
2023/04/17 04:39:42;;;;;;;17.97;13.77;;;;;;;;;;5005776;28;20184;-74
2023/04/17 04:42:12;;;;;;;14.90;12.23;;;;;;;;;;5042509;28;20206;-74
2023/04/17 04:44:58;;;;;;;16.90;12.60;;;;;;;;;;5011068;28;20213;-73
2023/04/17 04:47:27;;;;;;;14.97;12.53;;;;;;;;;;5009089;28;20669;-74
2023/04/17 04:49:54;;;;;;;18.30;12.73;;;;;;;;;;5042848;28;20221;-74
2023/04/17 04:52:21;;;;;;;16.53;12.00;;;;;;;;;;5042317;28;20175;-74
2023/04/17 04:54:49;;;;;;;16.27;12.93;;;;;;;;;;5026690;28;20199;-75
2023/04/17 04:57:15;;;;;;;15.83;12.80;;;;;;;;;;5029649;28;20245;-75
2023/04/17 04:59:44;;;;;;;16.13;12.90;;;;;;;;;;5029788;28;20775;-74
2023/04/17 05:02:28;;;;;;;17.13;13.23;;;;;;;;;;5016979;28;20194;-74
2023/04/17 05:04:55;;;;;;;17.37;13.83;;;;;;;;;;5047934;28;20179;-74
2023/04/17 05:07:22;;;;;;;21.77;14.33;;;;;;;;;;5029889;28;20313;-74
2023/04/17 05:09:49;;;;;;;15.03;12.40;;;;;;;;;;5013383;28;20266;-74
2023/04/17 05:12:15;;;;;;;19.27;14.63;;;;;;;;;;5013041;28;20191;-76
2023/04/17 05:14:43;;;;;;;19.40;15.03;;;;;;;;;;5051186;28;20194;-76
2023/04/17 05:17:09;;;;;;;15.53;12.87;;;;;;;;;;5046526;28;20583;-75
2023/04/17 05:19:35;;;;;;;18.83;13.97;;;;;;;;;;5046858;28;20202;-75
2023/04/17 05:22:05;;;;;;;16.63;13.37;;;;;;;;;;5046157;28;20179;-74
2023/04/17 05:24:34;;;;;;;18.13;14.30;;;;;;;;;;5047848;28;20207;-75
2023/04/17 05:27:01;;;;;;;18.43;13.67;;;;;;;;;;5039696;28;20210;-74
2023/04/17 05:29:27;;;;;;;16.40;13.73;;;;;;;;;;5007547;28;20187;-74
2023/04/17 05:31:55;;;;;;;17.80;12.83;;;;;;;;;;5012938;28;20218;-74
2023/04/17 05:34:48;;;;;;;17.73;13.43;;;;;;;;;;4995116;28;20223;-73
2023/04/17 05:37:16;;;;;;;18.40;14.03;;;;;;;;;;4993273;28;20272;-74
2023/04/17 05:39:42;;;;;;;19.90;15.70;;;;;;;;;;4969992;28;20187;-73
2023/04/17 05:42:08;;;;;;;22.27;16.67;;;;;;;;;;4967219;28;20310;-75
2023/04/17 05:44:34;;;;;;;20.40;15.37;;;;;;;;;;4972863;28;20200;-74
2023/04/17 05:47:00;;;;;;;22.63;16.80;;;;;;;;;;4962644;28;20207;-73
2023/04/17 05:49:26;;;;;;;27.10;21.20;;;;;;;;;;4989882;28;20191;-73
2023/04/17 05:51:53;;;;;;;27.87;21.57;;;;;;;;;;4958499;28;20900;-74
2023/04/17 05:54:19;;;;;;;25.57;19.63;;;;;;;;;;4964817;28;20199;-73
2023/04/17 05:56:47;;;;;;;23.70;18.93;;;;;;;;;;4972289;28;20212;-73
2023/04/17 05:59:14;;;;;;;24.53;19.40;;;;;;;;;;4953484;28;20191;-74
2023/04/17 06:01:42;;;;;;;29.37;23.33;;;;;;;;;;4955195;28;22170;-73
2023/04/17 06:04:09;;;;;;;28.20;22.77;;;;;;;;;;4966011;28;20222;-74
2023/04/17 06:06:35;;;;;;;27.47;21.00;;;;;;;;;;4941394;28;20651;-73
2023/04/17 06:09:03;;;;;;;31.97;22.20;;;;;;;;;;4956867;28;22602;-73
2023/04/17 06:11:29;;;;;;;30.20;23.07;;;;;;;;;;4956840;28;20349;-73
2023/04/17 06:13:57;;;;;;;25.83;19.83;;;;;;;;;;5009949;28;20274;-73
2023/04/17 06:16:25;;;;;;;30.73;24.07;;;;;;;;;;5043075;28;20298;-73
2023/04/17 06:18:51;;;;;;;27.87;21.97;;;;;;;;;;5011768;28;20706;-73
2023/04/17 06:21:17;;;;;;;28.60;22.20;;;;;;;;;;5010847;28;20588;-73
2023/04/17 06:23:44;;;;;;;26.20;20.73;;;;;;;;;;5009852;28;20203;-72
2023/04/17 06:26:11;;;;;;;29.53;22.30;;;;;;;;;;5011918;28;20176;-73
2023/04/17 06:28:39;;;;;;;31.00;22.63;;;;;;;;;;5009757;28;20203;-73
2023/04/17 06:31:06;;;;;;;28.43;21.57;;;;;;;;;;5011212;28;20262;-73
2023/04/17 06:33:33;;;;;;;29.13;22.93;;;;;;;;;;5009656;28;20183;-73
2023/04/17 06:36:00;;;;;;;29.63;22.27;;;;;;;;;;5026489;28;20229;-74
2023/04/17 06:38:34;;;;;;;27.10;21.43;;;;;;;;;;5010364;28;20203;-73
2023/04/17 06:41:01;;;;;;;28.80;22.80;;;;;;;;;;5043508;28;20214;-73
2023/04/17 06:43:28;;;;;;;28.60;21.23;;;;;;;;;;5009390;28;20247;-73
2023/04/17 06:45:54;;;;;;;28.90;22.93;;;;;;;;;;5026605;28;20184;-73
2023/04/17 06:48:20;;;;;;;28.43;22.27;;;;;;;;;;5011199;28;20206;-73
2023/04/17 06:50:47;;;;;;;29.97;22.87;;;;;;;;;;5009473;28;20200;-73
2023/04/17 06:53:13;;;;;;;27.43;20.90;;;;;;;;;;5020646;28;20598;-74
2023/04/17 06:55:39;;;;;;;30.03;22.23;;;;;;;;;;5018597;28;20175;-74
2023/04/17 06:58:07;;;;;;;26.37;21.67;;;;;;;;;;5012123;28;20247;-73
2023/04/17 07:00:33;;;;;;;30.20;22.63;;;;;;;;;;5012009;28;20655;-74
2023/04/17 07:02:59;;;;;;;25.90;19.90;;;;;;;;;;5016755;28;20183;-73
2023/04/17 07:05:26;;;;;;;24.53;20.07;;;;;;;;;;5019353;28;20179;-74
2023/04/17 07:07:52;;;;;;;26.40;21.10;;;;;;;;;;5021575;28;20214;-74
2023/04/17 07:10:18;;;;;;;22.63;18.50;;;;;;;;;;5031341;28;20265;-74
2023/04/17 07:12:44;;;;;;;27.70;21.07;;;;;;;;;;5031754;28;20178;-73
2023/04/17 07:15:11;;;;;;;26.00;20.83;;;;;;;;;;5032100;28;20177;-73
2023/04/17 07:17:37;;;;;;;25.10;20.77;;;;;;;;;;5031553;28;20748;-73
2023/04/17 07:20:06;;;;;;;25.67;20.43;;;;;;;;;;5031981;28;20653;-73
2023/04/17 07:22:35;;;;;;;23.53;18.80;;;;;;;;;;5030665;28;20250;-73
2023/04/17 07:25:02;;;;;;;26.10;20.87;;;;;;;;;;5032026;28;20175;-72
2023/04/17 07:27:28;;;;;;;23.20;19.47;;;;;;;;;;5032057;28;20214;-73
2023/04/17 07:29:55;;;;;;;27.73;21.70;;;;;;;;;;5031885;28;20193;-73
2023/04/17 07:32:23;;;;;;;24.70;20.37;;;;;;;;;;5031450;28;20708;-73
2023/04/17 07:34:49;;;;;;;24.97;19.40;;;;;;;;;;5031893;28;20185;-73
2023/04/17 07:37:15;;;;;;;24.70;19.80;;;;;;;;;;5031537;28;20216;-74
2023/04/17 07:39:41;;;;;;;22.70;19.23;;;;;;;;;;5031673;28;20178;-73
2023/04/17 07:42:09;;;;;;;22.73;18.70;;;;;;;;;;5031356;28;20181;-73
2023/04/17 07:44:35;;;;;;;22.60;18.77;;;;;;;;;;5031674;28;20257;-73
2023/04/17 07:47:01;;;;;;;18.57;16.43;;;;;;;;;;5031626;28;20685;-73
2023/04/17 07:49:27;;;;;;;19.33;15.60;;;;;;;;;;5031604;28;20265;-73
2023/04/17 07:51:54;;;;;;;17.57;15.67;;;;;;;;;;5031466;28;20228;-73
2023/04/17 07:54:20;;;;;;;17.10;14.17;;;;;;;;;;5031139;28;20183;-74
2023/04/17 07:56:48;;;;;;;18.73;15.47;;;;;;;;;;5030115;28;20582;-73
2023/04/17 07:59:15;;;;;;;16.00;11.23;;;;;;;;;;5031462;28;20171;-73
2023/04/17 08:01:41;;;;;;;11.97;10.33;;;;;;;;;;5030169;28;20650;-73
2023/04/17 08:04:08;;;;;;;10.67;9.53;;;;;;;;;;5031265;28;20182;-73
2023/04/17 08:06:34;;;;;;;11.07;8.90;;;;;;;;;;5031176;28;20187;-74
2023/04/17 08:09:01;;;;;;;8.80;7.90;;;;;;;;;;5031315;28;20229;-74
2023/04/17 08:11:27;;;;;;;8.77;7.30;;;;;;;;;;5031297;28;20206;-73
2023/04/17 08:13:57;;;;;;;7.60;6.90;;;;;;;;;;5029672;28;20183;-73
2023/04/17 08:16:23;;;;;;;8.50;7.00;;;;;;;;;;5031313;28;20193;-73
2023/04/17 08:18:49;;;;;;;9.30;6.73;;;;;;;;;;5031225;28;20245;-74
2023/04/17 08:21:15;;;;;;;7.57;6.73;;;;;;;;;;5031215;28;20654;-73
2023/04/17 08:23:41;;;;;;;8.43;6.90;;;;;;;;;;5030635;28;20171;-74
2023/04/17 08:26:07;;;;;;;8.60;6.77;;;;;;;;;;5031204;28;20190;-73
2023/04/17 08:28:33;;;;;;;7.50;6.50;;;;;;;;;;5013265;28;20234;-73
2023/04/17 08:30:59;;;;;;;6.93;6.23;;;;;;;;;;5030619;28;20185;-74
2023/04/17 08:33:26;;;;;;;6.50;5.80;;;;;;;;;;5030896;28;20542;-74
2023/04/17 08:35:52;;;;;;;8.93;6.47;;;;;;;;;;5031292;28;20661;-74
2023/04/17 08:38:18;;;;;;;9.40;7.37;;;;;;;;;;5013292;28;20214;-74
2023/04/17 08:40:50;;;;;;;9.40;7.97;;;;;;;;;;5025293;28;20194;-76
2023/04/17 08:43:18;;;;;;;10.67;7.90;;;;;;;;;;5029077;28;20245;-78
2023/04/17 08:45:52;;;;;;;10.87;8.20;;;;;;;;;;5011466;28;20183;-76
2023/04/17 08:48:18;;;;;;;8.30;7.50;;;;;;;;;;5011121;28;20223;-74
2023/04/17 08:50:47;;;;;;;10.83;9.47;;;;;;;;;;5013571;28;20197;-74
2023/04/17 08:53:14;;;;;;;11.10;9.10;;;;;;;;;;5025546;28;20182;-73
2023/04/17 08:55:40;;;;;;;8.90;8.00;;;;;;;;;;5059244;28;20184;-74
2023/04/17 08:58:08;;;;;;;9.33;7.93;;;;;;;;;;5011009;28;20221;-74
2023/04/17 09:00:36;;;;;;;9.10;7.47;;;;;;;;;;5009387;28;20180;-74
2023/04/17 09:03:03;;;;;;;9.77;7.63;;;;;;;;;;5016709;28;20175;-74
2023/04/17 09:05:35;;;;;;;7.70;6.90;;;;;;;;;;5010727;28;20255;-75
2023/04/17 09:08:10;;;;;;;9.03;7.70;;;;;;;;;;5011577;28;20211;-74
2023/04/17 09:10:40;;;;;;;8.10;6.93;;;;;;;;;;5019539;28;20190;-74
2023/04/17 09:13:07;;;;;;;8.37;6.47;;;;;;;;;;5008959;28;20659;-75
2023/04/17 09:15:34;;;;;;;7.87;6.50;;;;;;;;;;5015062;28;20631;-74
2023/04/17 09:18:00;;;;;;;7.43;6.73;;;;;;;;;;5011290;28;20302;-74
2023/04/17 09:20:27;;;;;;;7.03;6.33;;;;;;;;;;5015097;28;20190;-74
2023/04/17 09:23:01;;;;;;;8.33;6.20;;;;;;;;;;5007001;28;20179;-74
2023/04/17 09:25:27;;;;;;;7.87;6.47;;;;;;;;;;5011814;28;20666;-74
2023/04/17 09:27:54;;;;;;;7.90;7.10;;;;;;;;;;5011271;28;20677;-74
2023/04/17 09:30:25;;;;;;;6.93;6.23;;;;;;;;;;5011124;28;20588;-74
2023/04/17 09:33:02;;;;;;;8.00;6.93;;;;;;;;;;5008702;28;20683;-76
2023/04/17 09:35:29;;;;;;;9.03;7.40;;;;;;;;;;5018012;28;20197;-74
2023/04/17 09:37:58;;;;;;;7.87;7.07;;;;;;;;;;5029161;28;20207;-74
2023/04/17 09:40:25;;;;;;;8.67;7.77;;;;;;;;;;5027515;28;20225;-75
2023/04/17 09:43:02;;;;;;;8.97;7.67;;;;;;;;;;5033413;28;20229;-74
2023/04/17 09:45:42;;;;;;;8.30;7.30;;;;;;;;;;5034049;28;20215;-75
2023/04/17 09:48:09;;;;;;;8.73;7.80;;;;;;;;;;5033762;28;20706;-75
2023/04/17 09:50:36;;;;;;;9.40;8.17;;;;;;;;;;5016217;28;20241;-74
2023/04/17 09:53:03;;;;;;;11.60;8.40;;;;;;;;;;5033440;28;20601;-74
2023/04/17 09:55:30;;;;;;;9.07;7.47;;;;;;;;;;5033931;28;20216;-74
2023/04/17 09:57:58;;;;;;;9.83;8.03;;;;;;;;;;5032591;28;20214;-74
2023/04/17 10:00:26;;;;;;;8.93;7.83;;;;;;;;;;5033965;28;20175;-73
2023/04/17 10:02:53;;;;;;;8.80;7.70;;;;;;;;;;5023781;28;20246;-74
2023/04/17 10:05:20;;;;;;;9.07;7.60;;;;;;;;;;5012662;28;20183;-74
2023/04/17 10:07:47;;;;;;;8.87;7.60;;;;;;;;;;5013600;28;20214;-74
2023/04/17 10:10:24;;;;;;;7.97;7.10;;;;;;;;;;5012595;28;20175;-74
2023/04/17 10:12:53;;;;;;;11.33;8.37;;;;;;;;;;5013350;28;20657;-74
2023/04/17 10:15:20;;;;;;;10.37;8.40;;;;;;;;;;5029150;28;20233;-73
2023/04/17 10:17:48;;;;;;;9.63;8.63;;;;;;;;;;5029121;28;20752;-75
2023/04/17 10:20:18;;;;;;;9.50;8.50;;;;;;;;;;4995130;28;20648;-75
2023/04/17 10:22:48;;;;;;;10.23;7.87;;;;;;;;;;5010358;28;20183;-74
2023/04/17 10:25:14;;;;;;;9.33;7.93;;;;;;;;;;5012232;28;20281;-74
2023/04/17 10:27:40;;;;;;;9.50;8.20;;;;;;;;;;5007907;28;20238;-74
2023/04/17 10:30:09;;;;;;;9.27;7.67;;;;;;;;;;5008396;28;20251;-74
2023/04/17 10:32:36;;;;;;;9.13;8.23;;;;;;;;;;5011272;28;20681;-74
2023/04/17 10:35:16;;;;;;;12.17;9.10;;;;;;;;;;5012109;28;20222;-74
2023/04/17 10:37:49;;;;;;;10.97;9.77;;;;;;;;;;5011713;28;20714;-74
2023/04/17 10:40:26;;;;;;;10.73;9.07;;;;;;;;;;5011494;28;20176;-74
2023/04/17 10:43:11;;;;;;;11.23;9.17;;;;;;;;;;5010359;28;20269;-75
2023/04/17 10:45:58;;;;;;;9.67;8.57;;;;;;;;;;5010501;28;20221;-74
2023/04/17 10:48:28;;;;;;;7.80;6.60;;;;;;;;;;5011144;28;20280;-75
2023/04/17 10:50:57;;;;;;;6.40;5.67;;;;;;;;;;5011293;28;20537;-74
2023/04/17 10:53:39;;;;;;;7.80;5.30;;;;;;;;;;5008790;28;20202;-75
2023/04/17 10:56:06;;;;;;;8.20;5.00;;;;;;;;;;5010082;28;20179;-74
2023/04/17 10:58:32;;;;;;;5.80;4.67;;;;;;;;;;5010065;28;20687;-75
2023/04/17 11:01:02;;;;;;;4.77;4.20;;;;;;;;;;5009327;28;20206;-75
2023/04/17 11:03:30;;;;;;;6.93;4.10;;;;;;;;;;5010815;28;20175;-74
2023/04/17 11:05:58;;;;;;;6.90;3.90;;;;;;;;;;5042718;28;20726;-77
2023/04/17 11:08:24;;;;;;;4.87;3.50;;;;;;;;;;5009157;28;20213;-74
2023/04/17 11:10:57;;;;;;;4.47;3.30;;;;;;;;;;5011168;28;20933;-74
2023/04/17 11:13:24;;;;;;;4.07;3.53;;;;;;;;;;5010628;28;20214;-74
2023/04/17 11:15:51;;;;;;;6.00;3.50;;;;;;;;;;5011270;28;20262;-75
2023/04/17 11:18:17;;;;;;;5.33;3.60;;;;;;;;;;5010389;28;20238;-75
2023/04/17 11:20:44;;;;;;;6.10;3.60;;;;;;;;;;5010820;28;20254;-74
2023/04/17 11:23:10;;;;;;;4.10;3.70;;;;;;;;;;5008565;28;20225;-74
2023/04/17 11:25:40;;;;;;;4.70;4.20;;;;;;;;;;5009726;28;20183;-75
2023/04/17 11:28:06;;;;;;;5.80;3.80;;;;;;;;;;5009625;28;20210;-75
2023/04/17 11:30:39;;;;;;;6.53;4.10;;;;;;;;;;5010572;28;20244;-74
2023/04/17 11:33:06;;;;;;;4.63;4.13;;;;;;;;;;5010090;28;20205;-74
2023/04/17 11:35:36;;;;;;;5.50;4.00;;;;;;;;;;5010482;28;20336;-75
2023/04/17 11:38:06;;;;;;;4.90;4.50;;;;;;;;;;5010684;28;20250;-74
2023/04/17 11:40:32;;;;;;;4.77;4.30;;;;;;;;;;5011345;28;20197;-74
2023/04/17 11:43:02;;;;;;;6.37;4.80;;;;;;;;;;5008823;28;20248;-75
2023/04/17 11:45:31;;;;;;;6.43;5.00;;;;;;;;;;5010990;28;20683;-74
2023/04/17 11:47:57;;;;;;;5.77;4.80;;;;;;;;;;5010759;28;20203;-74
2023/04/17 11:50:28;;;;;;;5.13;4.63;;;;;;;;;;5010546;28;20178;-74
2023/04/17 11:53:01;;;;;;;6.57;5.33;;;;;;;;;;5009965;28;20600;-74
2023/04/17 11:55:32;;;;;;;7.43;5.90;;;;;;;;;;5010923;28;20231;-74
2023/04/17 11:57:59;;;;;;;8.43;6.17;;;;;;;;;;5009440;28;20283;-74
2023/04/17 12:00:30;;;;;;;6.73;5.47;;;;;;;;;;5004607;28;20189;-75
2023/04/17 12:02:58;;;;;;;6.57;5.97;;;;;;;;;;5009617;28;20194;-77
2023/04/17 12:05:25;;;;;;;6.33;5.60;;;;;;;;;;5009965;28;20662;-76
2023/04/17 12:07:59;;;;;;;7.53;5.77;;;;;;;;;;5010385;28;20218;-74
2023/04/17 12:10:35;;;;;;;8.80;6.27;;;;;;;;;;5012202;28;20179;-74
2023/04/17 12:13:01;;;;;;;6.83;6.13;;;;;;;;;;5010734;28;20187;-72
2023/04/17 12:15:27;;;;;;;7.10;6.40;;;;;;;;;;5009887;28;20186;-76
2023/04/17 12:17:53;;;;;;;7.33;6.50;;;;;;;;;;5010275;28;20211;-76
2023/04/17 12:20:19;;;;;;;7.53;6.30;;;;;;;;;;5006944;28;20194;-75
2023/04/17 12:22:45;;;;;;;7.37;6.00;;;;;;;;;;5008824;28;20179;-76
2023/04/17 12:25:11;;;;;;;7.03;5.90;;;;;;;;;;5011316;28;20190;-76
2023/04/17 12:27:38;;;;;;;8.60;6.87;;;;;;;;;;5011389;28;20976;-76
2023/04/17 12:30:04;;;;;;;7.37;6.23;;;;;;;;;;5010861;28;20556;-76
2023/04/17 12:32:30;;;;;;;8.77;6.47;;;;;;;;;;5010451;28;20222;-76
2023/04/17 12:34:57;;;;;;;7.80;6.30;;;;;;;;;;5010983;28;20186;-76
2023/04/17 12:37:24;;;;;;;7.70;6.27;;;;;;;;;;5010830;28;20211;-75
2023/04/17 12:39:50;;;;;;;10.00;6.30;;;;;;;;;;5010555;28;20193;-75
2023/04/17 12:42:16;;;;;;;7.50;6.60;;;;;;;;;;5010254;28;20273;-75
2023/04/17 12:44:42;;;;;;;6.97;6.27;;;;;;;;;;5009194;28;20588;-76
2023/04/17 12:47:08;;;;;;;6.10;5.50;;;;;;;;;;5008591;28;20203;-76
2023/04/17 12:49:35;;;;;;;6.53;5.80;;;;;;;;;;5010252;28;20557;-76
2023/04/17 12:52:01;;;;;;;7.53;6.10;;;;;;;;;;5007402;28;20230;-76
2023/04/17 12:54:27;;;;;;;5.90;5.10;;;;;;;;;;5010368;28;20229;-77
2023/04/17 12:56:53;;;;;;;6.10;5.50;;;;;;;;;;5014333;28;20290;-76
2023/04/17 12:59:19;;;;;;;7.73;5.90;;;;;;;;;;5012847;28;20349;-76
2023/04/17 13:01:45;;;;;;;8.00;4.90;;;;;;;;;;5010587;28;20193;-76
2023/04/17 13:04:11;;;;;;;6.17;5.07;;;;;;;;;;5010266;28;20269;-77
2023/04/17 13:06:38;;;;;;;5.70;5.00;;;;;;;;;;5010362;28;20191;-76
2023/04/17 13:09:04;;;;;;;5.07;4.57;;;;;;;;;;5015090;28;20356;-76
2023/04/17 13:11:31;;;;;;;5.43;4.93;;;;;;;;;;5042894;28;20216;-77
2023/04/17 13:13:57;;;;;;;6.40;5.00;;;;;;;;;;5009962;28;20601;-76
2023/04/17 13:16:24;;;;;;;5.60;5.10;;;;;;;;;;5009287;28;20677;-76
2023/04/17 13:18:50;;;;;;;5.80;4.90;;;;;;;;;;5014219;28;20225;-76
2023/04/17 13:21:16;;;;;;;5.57;5.07;;;;;;;;;;5014093;28;20898;-76
2023/04/17 13:23:42;;;;;;;6.83;5.53;;;;;;;;;;5012371;28;20175;-76
2023/04/17 13:26:08;;;;;;;6.00;5.00;;;;;;;;;;5014172;28;20202;-76
2023/04/17 13:28:34;;;;;;;6.00;5.00;;;;;;;;;;5013190;28;20662;-76
2023/04/17 13:31:00;;;;;;;5.67;4.40;;;;;;;;;;5015494;28;20187;-76
2023/04/17 13:33:27;;;;;;;4.63;4.17;;;;;;;;;;5013614;28;20187;-76
2023/04/17 13:35:53;;;;;;;6.00;4.53;;;;;;;;;;5014256;28;20188;-76
2023/04/17 13:38:19;;;;;;;5.33;4.47;;;;;;;;;;5014307;28;20214;-78
2023/04/17 13:40:46;;;;;;;4.63;4.23;;;;;;;;;;5018831;28;20222;-78
2023/04/17 13:43:12;;;;;;;5.13;4.07;;;;;;;;;;4997011;28;22268;-76
2023/04/17 13:45:39;;;;;;;16.50;4.87;;;;;;;;;;5012349;28;20189;-74
2023/04/17 13:48:05;;;;;;;8.27;4.00;;;;;;;;;;5013185;28;20213;-73
2023/04/17 13:50:31;;;;;;;4.33;3.90;;;;;;;;;;5013477;28;20195;-75
2023/04/17 13:52:57;;;;;;;3.83;3.20;;;;;;;;;;5011529;28;20248;-76
2023/04/17 13:55:24;;;;;;;3.30;3.00;;;;;;;;;;5013133;28;20175;-75
2023/04/17 13:57:50;;;;;;;3.20;2.70;;;;;;;;;;5011645;28;20211;-76
2023/04/17 14:00:17;;;;;;;4.27;2.57;;;;;;;;;;5012156;28;20167;-75
2023/04/17 14:02:43;;;;;;;3.10;2.80;;;;;;;;;;5012809;28;20183;-78
2023/04/17 14:05:09;;;;;;;2.80;2.50;;;;;;;;;;5012945;28;20209;-75
2023/04/17 14:07:36;;;;;;;2.70;2.50;;;;;;;;;;5012199;28;21065;-75
2023/04/17 14:10:02;;;;;;;4.37;2.40;;;;;;;;;;5013245;28;20187;-75
2023/04/17 14:12:29;;;;;;;2.80;2.50;;;;;;;;;;5012180;28;20194;-75
2023/04/17 14:14:55;;;;;;;2.50;2.20;;;;;;;;;;5012734;28;20194;-75
2023/04/17 14:17:21;;;;;;;5.43;2.10;;;;;;;;;;4993547;28;20225;-74
2023/04/17 14:19:47;;;;;;;3.57;2.50;;;;;;;;;;5009165;28;20221;-74
2023/04/17 14:22:14;;;;;;;2.43;2.20;;;;;;;;;;5011569;28;20186;-74
2023/04/17 14:24:41;;;;;;;2.23;2.03;;;;;;;;;;5010869;28;20245;-74
2023/04/17 14:27:08;;;;;;;2.53;2.33;;;;;;;;;;5011719;28;20214;-74
2023/04/17 14:29:35;;;;;;;2.57;2.37;;;;;;;;;;4994537;28;20263;-75
2023/04/17 14:32:02;;;;;;;3.13;2.07;;;;;;;;;;5011044;28;20175;-75